Time;durP1;ratioP1;P1;durP2;ratioP2;P2;SDS_P1;SDS_P2;PMS_P1;PMS_P2;Temp;Humidity;BMP_temperature;BMP_pressure;BME280_temperature;BME280_humidity;BME280_pressure;Samples;Min_cycle;Max_cycle;Signal;HPM_P1;HPM_P2
2022/10/15 00:09:43;;;;;;;87.43;42.13;;;9.00;99.90;;;;;;21055989;28;20456;-52
2022/10/15 00:19:46;;;;;;;73.80;39.53;;;8.90;99.90;;;;;;21035035;28;20534;-51
2022/10/15 00:29:49;;;;;;;72.65;37.03;;;9.00;99.90;;;;;;21054944;28;20028;-52
2022/10/15 00:39:52;;;;;;;86.20;42.22;;;9.10;99.90;;;;;;21037583;28;20044;-52
2022/10/15 00:50:00;;;;;;;85.78;42.28;;;9.20;99.90;;;;;;21053207;28;20541;-53
2022/10/15 01:00:14;;;;;;;91.68;44.22;;;9.20;99.90;;;;;;21035847;28;20040;-51
2022/10/15 01:10:19;;;;;;;99.57;50.40;;;9.20;99.90;;;;;;21052355;28;20073;-52
2022/10/15 01:20:40;;;;;;;114.18;53.97;;;9.40;99.90;;;;;;21049781;28;20043;-51
2022/10/15 01:30:47;;;;;;;100.30;48.60;;;9.70;99.90;;;;;;21051728;28;20094;-49
2022/10/15 01:41:15;;;;;;;93.18;48.20;;;9.70;99.90;;;;;;21050822;28;20051;-49
2022/10/15 01:51:22;;;;;;;89.37;46.13;;;9.90;99.90;;;;;;21050635;28;20451;-51
2022/10/15 02:01:25;;;;;;;99.38;47.97;;;10.00;99.90;;;;;;21050795;28;20036;-51
2022/10/15 02:11:30;;;;;;;91.70;47.55;;;10.00;99.90;;;;;;21060481;28;20085;-52
2022/10/15 02:21:46;;;;;;;83.45;45.38;;;10.00;99.90;;;;;;21044540;28;20094;-50
2022/10/15 02:31:52;;;;;;;94.30;49.78;;;10.00;99.90;;;;;;21064232;28;20062;-52
2022/10/15 02:41:55;;;;;;;89.22;46.67;;;9.90;99.90;;;;;;21030060;28;20382;-51
2022/10/15 02:51:58;;;;;;;98.55;49.42;;;9.90;99.90;;;;;;21046995;28;20036;-52
2022/10/15 03:02:01;;;;;;;96.47;48.67;;;9.90;99.90;;;;;;21045507;28;20032;-57
2022/10/15 03:12:05;;;;;;;85.45;46.58;;;9.90;99.90;;;;;;21044718;28;20035;-51
2022/10/15 03:22:09;;;;;;;99.10;49.95;;;9.90;99.90;;;;;;21039207;28;20488;-54
2022/10/15 03:32:20;;;;;;;85.50;44.83;;;9.90;99.90;;;;;;21043189;28;20040;-57
2022/10/15 03:42:23;;;;;;;81.82;40.85;;;9.80;99.90;;;;;;21058063;28;20573;-51
2022/10/15 03:52:26;;;;;;;98.38;47.20;;;9.50;99.90;;;;;;21040890;28;20032;-48
2022/10/15 04:02:30;;;;;;;112.07;48.28;;;8.90;99.90;;;;;;21057466;28;20065;-52
2022/10/15 04:12:33;;;;;;;112.93;47.75;;;8.30;99.90;;;;;;21055835;28;20040;-51
2022/10/15 04:22:37;;;;;;;90.38;43.47;;;7.80;99.90;;;;;;21018374;28;20036;-53
2022/10/15 04:32:40;;;;;;;94.95;42.08;;;7.50;99.90;;;;;;21038104;28;20101;-50
2022/10/15 04:42:44;;;;;;;97.72;43.60;;;7.40;99.90;;;;;;21054010;28;20040;-53
2022/10/15 04:52:48;;;;;;;120.45;47.88;;;7.20;99.90;;;;;;21053012;28;20048;-51
2022/10/15 05:02:52;;;;;;;108.68;45.28;;;7.10;99.90;;;;;;21038906;28;20089;-50
2022/10/15 05:13:02;;;;;;;123.90;48.60;;;7.10;99.90;;;;;;20983590;28;20037;-58
2022/10/15 05:23:08;;;;;;;135.73;51.38;;;7.10;99.90;;;;;;20975519;28;20436;-49
2022/10/15 05:33:12;;;;;;;145.23;54.42;;;7.20;99.90;;;;;;20902804;28;20059;-52
2022/10/15 05:43:15;;;;;;;120.72;47.38;;;7.40;99.90;;;;;;20957458;28;20044;-56
2022/10/15 05:53:18;;;;;;;157.10;58.33;;;7.60;99.90;;;;;;20986131;28;20048;-50
2022/10/15 06:03:24;;;;;;;183.30;67.28;;;8.00;99.90;;;;;;21066931;28;20032;-58
2022/10/15 06:13:26;;;;;;;127.38;51.67;;;8.30;99.90;;;;;;21027711;28;20037;-50
2022/10/15 06:23:29;;;;;;;107.00;47.88;;;8.40;99.90;;;;;;21033203;28;20539;-56
2022/10/15 06:33:32;;;;;;;91.22;41.67;;;8.60;99.90;;;;;;20988750;28;20041;-50
2022/10/15 06:43:36;;;;;;;91.18;44.40;;;8.80;99.90;;;;;;20979447;28;20374;-51
2022/10/15 06:53:41;;;;;;;68.88;35.25;;;9.40;99.90;;;;;;21014128;28;20473;-52
2022/10/15 07:03:43;;;;;;;55.90;31.45;;;10.10;99.90;;;;;;21061550;28;20032;-58
2022/10/15 07:13:46;;;;;;;87.65;45.17;;;10.80;99.90;;;;;;21060381;28;20044;-49
2022/10/15 07:23:48;;;;;;;78.20;44.13;;;11.20;99.90;;;;;;21023394;28;20558;-60
2022/10/15 07:33:51;;;;;;;77.95;44.92;;;11.90;99.90;;;;;;21059612;28;20032;-59
2022/10/15 07:43:54;;;;;;;69.72;41.13;;;12.70;99.90;;;;;;21057261;28;20097;-53
2022/10/15 07:53:57;;;;;;;69.90;41.40;;;12.40;99.90;;;;;;21057881;28;20645;-51
2022/10/15 08:03:59;;;;;;;68.80;40.85;;;12.60;99.90;;;;;;21056650;28;20040;-51
2022/10/15 08:14:02;;;;;;;73.32;42.25;;;12.80;99.90;;;;;;21057400;28;20036;-53
2022/10/15 08:24:05;;;;;;;61.08;37.90;;;13.20;99.90;;;;;;21033980;28;20078;-52
2022/10/15 08:34:12;;;;;;;65.57;40.03;;;14.90;99.90;;;;;;21054237;28;20044;-54
2022/10/15 08:44:37;;;;;;;69.03;42.63;;;16.10;99.90;;;;;;21053351;28;20047;-49
2022/10/15 08:54:40;;;;;;;57.85;37.38;;;17.20;99.90;;;;;;21054034;28;20040;-60
2022/10/15 09:05:31;;;;;;;71.55;46.70;;;16.50;99.90;;;;;;21035796;28;20417;-60
2022/10/15 09:15:42;;;;;;;85.15;50.42;;;14.90;99.90;;;;;;21043629;28;20097;-60
2022/10/15 09:25:53;;;;;;;92.00;50.25;;;13.50;99.90;;;;;;21031211;28;20040;-60
2022/10/15 09:36:22;;;;;;;87.03;48.88;;;12.70;99.90;;;;;;21051483;28;20081;-50
2022/10/15 09:46:24;;;;;;;83.45;44.97;;;12.60;99.90;;;;;;20941867;28;20102;-60
2022/10/15 09:56:36;;;;;;;66.78;38.22;;;12.70;99.90;;;;;;21020545;28;20062;-52
2022/10/15 10:06:52;;;;;;;63.60;37.03;;;14.30;99.90;;;;;;20965424;28;20040;-51
2022/10/15 10:17:15;;;;;;;59.17;36.42;;;13.90;99.90;;;;;;20958620;28;20127;-60
2022/10/15 10:27:24;;;;;;;62.60;38.15;;;14.00;99.90;;;;;;21020693;28;20550;-54
2022/10/15 10:37:39;;;;;;;61.70;38.13;;;14.40;99.90;;;;;;21062906;28;20094;-60
2022/10/15 10:47:42;;;;;;;74.80;46.25;;;14.00;99.90;;;;;;21063343;28;20044;-58
2022/10/15 10:57:47;;;;;;;63.80;38.90;;;13.50;99.90;;;;;;21061861;28;20036;-60
2022/10/15 11:08:03;;;;;;;74.13;41.42;;;13.30;99.90;;;;;;21060986;28;20036;-52
2022/10/15 11:18:44;;;;;;;71.80;44.95;;;13.30;99.90;;;;;;21050152;28;20094;-53
2022/10/15 11:29:12;;;;;;;70.78;43.28;;;13.80;99.90;;;;;;20635937;28;20038;-52
2022/10/15 11:39:33;;;;;;;70.38;42.88;;;14.00;99.90;;;;;;20609822;28;20046;-52
2022/10/15 11:49:55;;;;;;;76.40;45.78;;;13.90;99.90;;;;;;20576758;28;20129;-52
2022/10/15 12:00:19;;;;;;;80.55;47.38;;;13.90;99.90;;;;;;20751256;28;20044;-51
2022/10/15 12:10:38;;;;;;;80.00;44.50;;;13.50;99.90;;;;;;20972796;28;20095;-51
2022/10/15 12:20:42;;;;;;;89.05;51.15;;;13.40;99.90;;;;;;20958441;28;20101;-48
2022/10/15 12:31:05;;;;;;;94.95;53.42;;;13.30;99.90;;;;;;20971565;28;20041;-49
2022/10/15 12:41:10;;;;;;;94.20;54.45;;;13.00;99.90;;;;;;21002106;28;20497;-60
2022/10/15 12:51:34;;;;;;;102.15;57.33;;;12.80;99.90;;;;;;21052921;28;20033;-54
2022/10/15 13:01:42;;;;;;;109.20;58.85;;;12.70;99.90;;;;;;21053465;28;20496;-55
2022/10/15 13:11:49;;;;;;;95.37;55.20;;;12.70;99.90;;;;;;21052210;28;20105;-52
2022/10/15 13:22:04;;;;;;;110.18;58.63;;;12.90;99.90;;;;;;21031644;28;20117;-52
2022/10/15 13:32:14;;;;;;;94.18;52.13;;;13.50;99.90;;;;;;21050408;28;20055;-53
2022/10/15 13:42:22;;;;;;;87.68;50.92;;;13.60;99.90;;;;;;21050923;28;20091;-51
2022/10/15 13:52:25;;;;;;;85.35;50.28;;;13.60;99.90;;;;;;21050143;28;20572;-53
2022/10/15 14:02:27;;;;;;;93.28;52.60;;;13.30;99.90;;;;;;21055191;28;20093;-60
2022/10/15 14:12:31;;;;;;;89.18;50.92;;;13.20;99.90;;;;;;21065084;28;20097;-52
2022/10/15 14:22:37;;;;;;;90.22;51.33;;;13.20;99.90;;;;;;21012241;28;20036;-60
2022/10/15 14:32:50;;;;;;;86.75;50.75;;;13.20;99.90;;;;;;20968839;28;20037;-52
2022/10/15 14:43:04;;;;;;;92.05;51.38;;;13.30;99.90;;;;;;20959099;28;20049;-49
2022/10/15 14:53:10;;;;;;;90.90;51.28;;;13.30;99.90;;;;;;20933940;28;20098;-50
2022/10/15 15:03:16;;;;;;;96.97;54.53;;;13.30;99.90;;;;;;20896185;28;20435;-52
2022/10/15 15:13:25;;;;;;;84.25;49.85;;;13.20;99.90;;;;;;21044635;28;20435;-60
2022/10/15 15:23:29;;;;;;;95.47;52.88;;;12.90;99.90;;;;;;21040379;28;20094;-51
2022/10/15 15:33:33;;;;;;;91.68;53.25;;;12.60;99.90;;;;;;20956633;28;20037;-59
2022/10/15 15:43:35;;;;;;;114.60;61.38;;;12.50;99.90;;;;;;21047468;28;20105;-60
2022/10/15 15:53:38;;;;;;;101.07;52.70;;;12.30;99.90;;;;;;21058079;28;20434;-60
2022/10/15 16:03:40;;;;;;;98.97;50.78;;;11.90;99.90;;;;;;21057607;28;20062;-51
2022/10/15 16:13:43;;;;;;;128.38;59.90;;;11.40;99.90;;;;;;21040103;28;20106;-54
2022/10/15 16:23:46;;;;;;;137.55;60.60;;;10.90;99.90;;;;;;21018545;28;20031;-51
2022/10/15 16:33:49;;;;;;;144.07;60.88;;;10.30;99.90;;;;;;20981952;28;20174;-58
2022/10/15 16:43:52;;;;;;;126.78;55.05;;;9.90;99.90;;;;;;20970260;28;20052;-59
2022/10/15 16:53:54;;;;;;;117.13;50.78;;;9.50;99.90;;;;;;21037988;28;20044;-55
2022/10/15 17:03:58;;;;;;;126.15;51.80;;;9.30;99.90;;;;;;20959672;28;20036;-54
2022/10/15 17:14:06;;;;;;;129.68;52.75;;;9.20;99.90;;;;;;20968807;28;20516;-49
2022/10/15 17:24:11;;;;;;;138.43;57.85;;;9.20;99.90;;;;;;21009220;28;20040;-57
2022/10/15 17:34:15;;;;;;;128.60;56.15;;;9.20;99.90;;;;;;21051459;28;20040;-51
2022/10/15 17:44:18;;;;;;;131.50;54.63;;;9.30;99.90;;;;;;21065432;28;20097;-49
2022/10/15 17:54:21;;;;;;;131.82;56.20;;;9.50;99.90;;;;;;21066784;28;20028;-49
2022/10/15 18:04:23;;;;;;;126.72;55.60;;;9.70;99.90;;;;;;21066527;28;20028;-50
2022/10/15 18:14:31;;;;;;;121.65;53.17;;;9.70;99.90;;;;;;21066162;28;20062;-52
2022/10/15 18:24:33;;;;;;;120.43;53.80;;;9.70;99.90;;;;;;21044260;28;20128;-56
2022/10/15 18:34:40;;;;;;;109.18;49.85;;;9.90;99.90;;;;;;21063336;28;20032;-52
2022/10/15 18:44:43;;;;;;;94.13;45.60;;;10.00;99.90;;;;;;21063176;28;20047;-53
2022/10/15 18:54:46;;;;;;;97.03;46.03;;;10.10;99.90;;;;;;21061655;28;20036;-49
2022/10/15 19:04:48;;;;;;;89.18;44.97;;;10.20;99.90;;;;;;21061196;28;20032;-52
2022/10/15 19:14:54;;;;;;;89.18;44.13;;;10.30;99.90;;;;;;21061015;28;20124;-50
2022/10/15 19:24:57;;;;;;;81.90;41.67;;;10.40;99.90;;;;;;21039195;28;20559;-51
2022/10/15 19:35:00;;;;;;;89.90;45.42;;;10.50;99.90;;;;;;21010960;28;20093;-58
2022/10/15 19:45:03;;;;;;;90.32;45.83;;;10.50;99.90;;;;;;20956157;28;20074;-51
2022/10/15 19:55:06;;;;;;;77.18;41.50;;;10.50;99.90;;;;;;20947945;28;20093;-58
2022/10/15 20:05:09;;;;;;;77.20;41.28;;;10.50;99.90;;;;;;20962601;28;20032;-52
2022/10/15 20:15:12;;;;;;;83.88;43.17;;;10.40;99.90;;;;;;20974935;28;20098;-53
2022/10/15 20:25:15;;;;;;;98.03;47.22;;;10.10;99.90;;;;;;20988024;28;20044;-58
2022/10/15 20:35:19;;;;;;;108.03;48.78;;;9.60;99.90;;;;;;20988039;28;20061;-51
2022/10/15 20:45:22;;;;;;;93.55;41.75;;;9.20;99.90;;;;;;21053529;28;20109;-52
2022/10/15 20:55:25;;;;;;;129.70;55.10;;;9.00;99.90;;;;;;21052112;28;20573;-49
2022/10/15 21:05:27;;;;;;;116.07;51.75;;;9.10;99.90;;;;;;21052203;28;20036;-48
2022/10/15 21:15:31;;;;;;;116.30;50.97;;;9.30;99.90;;;;;;21035222;28;20093;-52
2022/10/15 21:25:33;;;;;;;102.93;48.25;;;9.40;99.90;;;;;;21032163;28;20032;-52
2022/10/15 21:35:36;;;;;;;105.68;47.80;;;9.50;99.90;;;;;;21052085;28;20081;-49
2022/10/15 21:45:38;;;;;;;96.18;48.05;;;9.70;99.90;;;;;;21051541;28;20444;-51
2022/10/15 21:55:52;;;;;;;92.05;46.53;;;10.00;99.90;;;;;;21051159;28;20405;-49
2022/10/15 22:05:57;;;;;;;91.07;46.25;;;10.20;99.90;;;;;;21050745;28;20502;-52
2022/10/15 22:16:00;;;;;;;101.43;49.53;;;10.20;99.90;;;;;;20953858;28;20535;-50
2022/10/15 22:26:03;;;;;;;105.15;51.67;;;10.20;99.90;;;;;;21013371;28;20040;-49
2022/10/15 22:36:15;;;;;;;99.38;49.05;;;10.20;99.90;;;;;;21064808;28;20032;-52
2022/10/15 22:46:19;;;;;;;97.70;49.45;;;10.30;99.90;;;;;;21063797;28;20417;-53
2022/10/15 22:56:22;;;;;;;113.05;55.03;;;10.30;99.90;;;;;;21062732;28;20081;-50
2022/10/15 23:06:25;;;;;;;94.35;50.35;;;10.40;99.90;;;;;;21062020;28;20040;-52
2022/10/15 23:16:31;;;;;;;97.50;48.30;;;10.40;99.90;;;;;;21079877;28;20489;-52
2022/10/15 23:26:36;;;;;;;97.00;47.83;;;10.20;99.90;;;;;;21040241;28;20032;-60
2022/10/15 23:36:39;;;;;;;93.38;45.97;;;10.10;99.90;;;;;;21058825;28;20036;-51
2022/10/15 23:46:44;;;;;;;85.97;44.10;;;10.00;99.90;;;;;;21058941;28;20447;-53
2022/10/15 23:56:47;;;;;;;82.25;42.00;;;9.90;99.90;;;;;;21058140;28;20032;-49
